Time;durP1;ratioP1;P1;durP2;ratioP2;P2;SDS_P1;SDS_P2;PMS_P1;PMS_P2;Temp;Humidity;BMP_temperature;BMP_pressure;BME280_temperature;BME280_humidity;BME280_pressure;Samples;Min_cycle;Max_cycle;Signal;HPM_P1;HPM_P2
2022/06/26 00:00:19;;;;;;;5.35;2.35;;;;;;;13.42;63.03;99406.13;5000409;28;20549;-48
2022/06/26 00:02:46;;;;;;;3.47;1.55;;;;;;;13.42;62.14;99409.59;4992555;28;20041;-48
2022/06/26 00:05:13;;;;;;;4.05;1.88;;;;;;;13.42;62.40;99408.72;4986369;28;20085;-47
2022/06/26 00:07:40;;;;;;;5.05;1.88;;;;;;;13.35;62.64;99406.25;4996834;28;20045;-44
2022/06/26 00:10:08;;;;;;;2.05;1.58;;;;;;;13.37;62.79;99401.03;4991806;28;20069;-44
2022/06/26 00:12:34;;;;;;;2.75;1.58;;;;;;;13.32;62.99;99402.91;4993722;28;20054;-44
2022/06/26 00:15:01;;;;;;;4.30;1.00;;;;;;;13.30;62.67;99410.72;4989059;28;20646;-45
2022/06/26 00:17:28;;;;;;;2.13;1.58;;;;;;;13.29;62.30;99405.56;4984067;28;20054;-46
2022/06/26 00:19:55;;;;;;;2.80;1.40;;;;;;;13.26;62.07;99403.91;4984778;28;20054;-44
2022/06/26 00:22:21;;;;;;;4.32;1.48;;;;;;;13.22;61.93;99394.47;4994539;28;20096;-46
2022/06/26 00:24:48;;;;;;;2.55;1.15;;;;;;;13.19;63.14;99405.78;4990446;28;20396;-46
2022/06/26 00:27:15;;;;;;;4.57;1.40;;;;;;;13.17;63.31;99401.53;4981781;28;20058;-45
2022/06/26 00:29:41;;;;;;;3.78;1.75;;;;;;;13.15;61.95;99405.91;4984415;28;20046;-48
2022/06/26 00:32:08;;;;;;;3.38;1.45;;;;;;;13.14;62.79;99406.78;4984612;28;20113;-44
2022/06/26 00:34:35;;;;;;;3.53;1.58;;;;;;;13.10;62.27;99414.66;4987329;28;20478;-43
2022/06/26 00:37:01;;;;;;;5.03;1.73;;;;;;;13.10;62.42;99413.78;4990619;28;20057;-43
2022/06/26 00:39:28;;;;;;;1.88;1.30;;;;;;;13.08;62.13;99408.63;4985564;28;20046;-44
2022/06/26 00:41:54;;;;;;;5.28;1.63;;;;;;;13.03;62.10;99418.28;4989779;28;20109;-44
2022/06/26 00:44:23;;;;;;;3.03;1.73;;;;;;;13.03;63.36;99418.28;4987413;28;20050;-44
2022/06/26 00:46:51;;;;;;;3.80;1.23;;;;;;;12.97;63.09;99413.25;4992344;28;20042;-48
2022/06/26 00:49:18;;;;;;;4.93;2.20;;;;;;;12.92;62.54;99415.09;4989892;28;20157;-45
2022/06/26 00:51:50;;;;;;;3.80;2.20;;;;;;;12.88;63.24;99414.31;4978195;28;20046;-45
2022/06/26 00:54:19;;;;;;;5.43;1.90;;;;;;;12.83;62.80;99417.00;4992759;28;20050;-43
2022/06/26 00:56:46;;;;;;;3.03;1.92;;;;;;;12.80;64.00;99413.63;4979647;28;20100;-44
2022/06/26 00:59:13;;;;;;;4.07;1.70;;;;;;;12.80;62.60;99401.47;4980385;28;20054;-42
2022/06/26 01:01:40;;;;;;;6.82;1.67;;;;;;;12.79;62.97;99415.38;4978105;28;20058;-43
2022/06/26 01:04:07;;;;;;;4.88;1.60;;;;;;;12.77;63.58;99416.28;4986049;28;20058;-45
2022/06/26 01:06:35;;;;;;;3.38;1.85;;;;;;;12.75;63.30;99418.06;4987869;28;20046;-43
2022/06/26 01:09:03;;;;;;;5.13;1.70;;;;;;;12.73;63.18;99420.69;4991542;28;20046;-44
2022/06/26 01:11:30;;;;;;;2.90;1.40;;;;;;;12.70;63.44;99420.78;4971765;28;20057;-45
2022/06/26 01:13:58;;;;;;;4.82;2.08;;;;;;;12.68;63.75;99417.34;4998162;28;20159;-43
2022/06/26 01:16:25;;;;;;;4.75;1.38;;;;;;;12.62;64.85;99414.84;4997653;28;20536;-44
2022/06/26 01:18:55;;;;;;;4.50;1.58;;;;;;;12.56;64.25;99416.72;4990143;28;20061;-43
2022/06/26 01:21:23;;;;;;;4.63;1.60;;;;;;;12.53;64.94;99414.16;4986693;28;20037;-45
2022/06/26 01:23:52;;;;;;;4.90;1.67;;;;;;;12.53;65.26;99416.78;4985961;28;20104;-45
2022/06/26 01:26:19;;;;;;;3.40;1.65;;;;;;;12.55;64.17;99425.41;4982899;28;20098;-43
2022/06/26 01:28:46;;;;;;;2.85;1.60;;;;;;;12.53;64.94;99428.91;4988995;28;20060;-44
2022/06/26 01:31:13;;;;;;;6.43;2.53;;;;;;;12.51;64.62;99418.56;4988121;28;20054;-44
2022/06/26 01:33:40;;;;;;;4.45;1.92;;;;;;;12.48;65.34;99416.03;4993571;28;20053;-43
2022/06/26 01:36:07;;;;;;;2.30;1.13;;;;;;;12.47;64.80;99414.31;4987585;28;20105;-47
2022/06/26 01:38:33;;;;;;;7.45;2.22;;;;;;;12.46;65.34;99417.78;4985269;28;20061;-46
2022/06/26 01:41:00;;;;;;;4.35;1.65;;;;;;;12.43;65.37;99418.69;4988212;28;20515;-46
2022/06/26 01:43:30;;;;;;;7.82;2.28;;;;;;;12.36;66.12;99422.31;4987902;28;20046;-46
2022/06/26 01:45:58;;;;;;;5.80;1.52;;;;;;;12.36;65.51;99414.50;4986389;28;20042;-43
2022/06/26 01:48:26;;;;;;;5.47;1.23;;;;;;;12.36;65.74;99424.91;4984490;28;20053;-44
2022/06/26 01:50:58;;;;;;;6.07;1.70;;;;;;;12.33;66.06;99418.03;4989971;28;20484;-44
2022/06/26 01:53:25;;;;;;;3.15;1.00;;;;;;;12.33;66.88;99427.59;4989032;28;20643;-47
2022/06/26 01:55:51;;;;;;;5.55;1.60;;;;;;;12.31;66.25;99421.56;4992921;28;20042;-43
2022/06/26 01:58:18;;;;;;;3.70;1.77;;;;;;;12.28;66.61;99419.88;4991551;28;20057;-43
2022/06/26 02:00:46;;;;;;;5.05;2.28;;;;;;;12.31;66.12;99422.41;4988702;28;20057;-45
2022/06/26 02:03:15;;;;;;;5.55;1.45;;;;;;;12.29;67.31;99419.00;4988484;28;20086;-43
2022/06/26 02:05:42;;;;;;;5.57;1.45;;;;;;;12.29;66.07;99416.38;4987439;28;20046;-42
2022/06/26 02:08:09;;;;;;;6.40;2.00;;;;;;;12.28;67.38;99425.06;4996056;28;20058;-46
2022/06/26 02:13:42;;;;;;;2.25;1.48;;;;;;;12.21;66.62;99418.28;4969321;28;20106;-43
2022/06/26 02:18:47;;;;;;;5.65;1.02;;;;;;;12.13;67.83;99420.19;5020912;28;20409;-45
2022/06/26 02:21:17;;;;;;;4.00;1.10;;;;;;;12.14;68.00;99421.88;5002959;28;20108;-47
2022/06/26 02:23:45;;;;;;;5.82;0.90;;;;;;;12.10;67.69;99428.03;4998163;28;20124;-43
2022/06/26 02:26:13;;;;;;;4.10;0.45;;;;;;;12.07;68.44;99421.16;4998525;28;20077;-41
2022/06/26 02:28:40;;;;;;;4.28;0.90;;;;;;;12.02;68.88;99428.16;4999820;28;20050;-45
2022/06/26 02:31:07;;;;;;;4.97;1.00;;;;;;;12.01;68.57;99431.59;5001827;28;20058;-44
2022/06/26 02:33:35;;;;;;;3.78;0.57;;;;;;;11.97;68.61;99425.63;4999358;28;20077;-43
2022/06/26 02:36:03;;;;;;;3.03;1.00;;;;;;;11.93;69.36;99419.63;4999256;28;20093;-42
2022/06/26 02:38:29;;;;;;;5.78;0.70;;;;;;;11.95;69.08;99417.00;5002310;28;20050;-45
2022/06/26 02:40:56;;;;;;;6.70;0.90;;;;;;;11.90;68.77;99419.72;5001731;28;20061;-45
2022/06/26 02:43:23;;;;;;;4.82;0.75;;;;;;;11.91;69.17;99420.53;4999563;28;20062;-45
2022/06/26 02:45:51;;;;;;;5.53;1.08;;;;;;;11.88;69.18;99418.00;5000661;28;20042;-45
2022/06/26 02:48:19;;;;;;;4.88;1.00;;;;;;;11.88;68.28;99416.28;4998739;28;20069;-44
2022/06/26 02:50:47;;;;;;;4.35;0.88;;;;;;;11.80;69.21;99412.97;5001307;28;20612;-43
2022/06/26 02:53:15;;;;;;;3.78;0.73;;;;;;;11.77;69.72;99419.06;4999126;28;20516;-43
2022/06/26 02:55:42;;;;;;;4.72;0.80;;;;;;;11.78;69.68;99415.59;4999063;28;20054;-44
2022/06/26 02:58:09;;;;;;;4.82;0.73;;;;;;;11.73;69.73;99412.22;4999610;28;20046;-44
2022/06/26 03:00:35;;;;;;;5.57;1.02;;;;;;;11.74;69.09;99407.88;4999228;28;20399;-43
2022/06/26 03:03:03;;;;;;;5.43;1.23;;;;;;;11.66;69.97;99421.00;5001200;28;20620;-43
2022/06/26 03:05:31;;;;;;;4.18;0.95;;;;;;;11.68;69.16;99420.06;4995600;28;20430;-44
2022/06/26 03:07:59;;;;;;;7.25;1.10;;;;;;;11.70;69.75;99427.84;4999495;28;20054;-45
2022/06/26 03:10:27;;;;;;;4.07;1.00;;;;;;;11.72;69.72;99431.25;5000164;28;20049;-45
2022/06/26 03:12:53;;;;;;;6.28;1.55;;;;;;;11.67;69.50;99422.69;4996702;28;20054;-44
2022/06/26 03:15:20;;;;;;;3.70;0.60;;;;;;;11.63;69.75;99428.81;4998430;28;20579;-44
2022/06/26 03:17:47;;;;;;;3.80;0.60;;;;;;;11.63;70.47;99437.47;4996511;28;20053;-44
2022/06/26 03:20:17;;;;;;;4.30;0.75;;;;;;;11.64;69.28;99438.31;4998726;28;20414;-44
2022/06/26 03:22:43;;;;;;;;;;;;;;;11.41;71.33;99431.75;5000877;28;20061;-45
2022/06/26 03:25:10;;;;;;;5.38;1.05;;;;;;;11.53;70.17;99436.78;5001132;28;19925;-42
2022/06/26 03:27:37;;;;;;;7.30;0.75;;;;;;;11.52;70.26;99437.63;5001584;28;20046;-45
2022/06/26 03:30:07;;;;;;;4.28;0.90;;;;;;;11.52;70.71;99432.44;4988119;28;20050;-43
2022/06/26 03:32:34;;;;;;;5.60;0.75;;;;;;;11.52;70.62;99437.63;4978264;28;20046;-43
2022/06/26 03:35:00;;;;;;;6.22;0.98;;;;;;;11.56;69.69;99438.44;4988343;28;20086;-43
2022/06/26 03:37:27;;;;;;;5.65;0.90;;;;;;;11.53;70.08;99441.09;4986011;28;20042;-44
2022/06/26 03:39:54;;;;;;;3.92;0.88;;;;;;;11.51;70.69;99440.25;4987173;28;20081;-45
2022/06/26 03:42:20;;;;;;;2.15;0.63;;;;;;;11.46;69.96;99437.75;4982896;28;20046;-43
2022/06/26 03:44:47;;;;;;;7.43;0.70;;;;;;;11.47;70.06;99444.63;4983954;28;20046;-44
2022/06/26 03:47:14;;;;;;;3.30;0.90;;;;;;;11.52;70.44;99445.41;4983223;28;20049;-45
2022/06/26 03:49:40;;;;;;;4.38;0.60;;;;;;;11.55;70.12;99445.38;4984272;28;20050;-43
2022/06/26 03:52:07;;;;;;;4.28;0.70;;;;;;;11.54;69.32;99448.84;4986044;28;20063;-44
2022/06/26 03:54:34;;;;;;;4.90;0.77;;;;;;;11.50;70.91;99452.38;4986283;28;20050;-43
2022/06/26 03:57:01;;;;;;;3.58;0.70;;;;;;;11.49;70.82;99445.47;4982134;28;20057;-43
2022/06/26 03:59:28;;;;;;;6.13;1.13;;;;;;;11.46;70.32;99450.72;4982248;28;20497;-44
2022/06/26 04:01:55;;;;;;;6.10;1.73;;;;;;;11.46;70.31;99450.72;4984568;28;20423;-44
2022/06/26 04:04:21;;;;;;;4.45;0.63;;;;;;;11.39;71.28;99449.09;4986206;28;20046;-42
2022/06/26 04:06:48;;;;;;;4.32;0.82;;;;;;;11.35;70.71;99452.63;4982829;28;20050;-45
2022/06/26 04:09:15;;;;;;;4.13;0.57;;;;;;;11.31;71.89;99450.06;4986526;28;20043;-44
2022/06/26 04:11:41;;;;;;;3.75;0.77;;;;;;;11.32;71.72;99444.00;4985434;28;20050;-45
2022/06/26 04:14:08;;;;;;;3.33;0.50;;;;;;;11.35;71.69;99439.66;4987527;28;20490;-45
2022/06/26 04:16:35;;;;;;;9.80;0.90;;;;;;;11.34;70.96;99446.56;4980278;28;20061;-42
2022/06/26 04:19:02;;;;;;;4.43;0.65;;;;;;;11.36;71.58;99447.41;4985248;28;20494;-42
2022/06/26 04:21:28;;;;;;;4.07;0.70;;;;;;;11.31;71.62;99452.66;4984071;28;20065;-45
2022/06/26 04:23:55;;;;;;;2.67;0.43;;;;;;;11.37;71.13;99459.50;4983410;28;20054;-44
2022/06/26 04:26:22;;;;;;;5.95;0.55;;;;;;;11.37;71.28;99458.63;4981788;28;20050;-45
2022/06/26 04:28:48;;;;;;;3.03;0.80;;;;;;;11.41;71.31;99460.28;4985476;28;20049;-47
2022/06/26 04:31:15;;;;;;;4.13;0.70;;;;;;;11.34;72.53;99466.47;4986872;28;20665;-47
2022/06/26 04:33:43;;;;;;;4.60;0.80;;;;;;;11.35;72.21;99458.63;4985732;28;20042;-42
2022/06/26 04:36:11;;;;;;;5.15;0.68;;;;;;;11.39;71.21;99465.50;4983849;28;20046;-44
2022/06/26 04:38:37;;;;;;;2.55;0.63;;;;;;;11.37;71.41;99466.41;4982944;28;20108;-41
2022/06/26 04:41:31;;;;;;;4.32;0.50;;;;;;;11.41;71.98;99468.06;4982135;28;20054;-43
2022/06/26 04:43:51;;;;;;;4.20;0.98;;;;;;;11.44;71.03;99462.84;4982186;28;20042;-45
2022/06/26 04:46:17;;;;;;;4.40;0.60;;;;;;;11.45;71.46;99464.53;4985354;28;20053;-42
2022/06/26 04:48:44;;;;;;;4.13;0.77;;;;;;;11.49;71.71;99460.19;4981664;28;20054;-45
2022/06/26 04:51:11;;;;;;;5.63;0.50;;;;;;;11.52;71.78;99471.34;4984326;28;20092;-44
2022/06/26 04:53:38;;;;;;;3.17;1.10;;;;;;;11.60;72.17;99478.16;4984601;28;20503;-43
2022/06/26 04:56:05;;;;;;;8.85;0.85;;;;;;;11.65;71.67;99471.16;4982555;28;20060;-45
2022/06/26 04:58:32;;;;;;;1.67;0.52;;;;;;;11.67;72.08;99469.38;4986311;28;20050;-43
2022/06/26 05:00:58;;;;;;;3.65;1.08;;;;;;;11.79;71.42;99464.00;4986521;28;20066;-43
2022/06/26 05:03:25;;;;;;;3.15;0.73;;;;;;;11.87;71.29;99466.47;4984564;28;20050;-43
2022/06/26 05:05:56;;;;;;;6.30;0.77;;;;;;;11.90;71.19;99476.78;4986751;28;20049;-44
2022/06/26 05:08:23;;;;;;;4.75;0.73;;;;;;;12.04;70.70;99468.75;4983849;28;20061;-42
2022/06/26 05:10:50;;;;;;;4.00;0.77;;;;;;;12.11;71.07;99471.25;4982832;28;20093;-45
2022/06/26 05:13:16;;;;;;;2.03;0.63;;;;;;;12.21;71.60;99473.69;4987032;28;20077;-45
2022/06/26 05:15:43;;;;;;;5.90;0.85;;;;;;;12.34;70.32;99482.06;4986201;28;20062;-44
2022/06/26 05:18:10;;;;;;;2.10;0.65;;;;;;;12.46;70.90;99470.59;4986588;28;20046;-45
2022/06/26 05:20:37;;;;;;;4.55;1.02;;;;;;;12.59;70.95;99480.72;4985775;28;20423;-42
2022/06/26 05:23:04;;;;;;;6.40;1.00;;;;;;;12.70;70.13;99477.94;4985774;28;20054;-44
2022/06/26 05:25:31;;;;;;;4.63;0.70;;;;;;;12.81;70.09;99480.31;4983972;28;20050;-44
2022/06/26 05:27:58;;;;;;;2.78;0.52;;;;;;;12.92;69.00;99483.53;4984637;28;20092;-43
2022/06/26 05:30:25;;;;;;;8.85;0.70;;;;;;;12.92;69.27;99486.13;4986707;28;20053;-43
2022/06/26 05:32:52;;;;;;;4.47;0.82;;;;;;;13.08;68.47;99484.03;4981305;28;20101;-43
2022/06/26 05:35:19;;;;;;;2.05;0.43;;;;;;;13.13;69.84;99476.13;4982612;28;20093;-47
2022/06/26 05:37:45;;;;;;;4.50;0.70;;;;;;;13.23;68.94;99477.63;4983194;28;20050;-44
2022/06/26 05:40:12;;;;;;;4.38;0.80;;;;;;;13.31;68.37;99485.25;4981610;28;20046;-45
2022/06/26 05:42:39;;;;;;;5.28;1.10;;;;;;;13.41;68.19;99495.47;4983016;28;20050;-44
2022/06/26 05:45:06;;;;;;;5.35;0.77;;;;;;;13.51;68.62;99486.56;4981169;28;20050;-43
2022/06/26 05:47:33;;;;;;;3.85;0.50;;;;;;;13.51;68.06;99481.34;4985090;28;20046;-44
2022/06/26 05:50:01;;;;;;;5.30;0.40;;;;;;;13.62;69.11;99474.16;4984089;28;20053;-42
2022/06/26 05:52:28;;;;;;;2.92;0.50;;;;;;;13.61;68.26;99482.84;4981240;28;24404;-43
2022/06/26 05:54:54;;;;;;;3.45;0.35;;;;;;;13.84;67.70;99484.03;4982249;28;20098;-47
2022/06/26 05:57:21;;;;;;;2.00;0.50;;;;;;;13.98;67.81;99490.63;4982861;28;20061;-42
2022/06/26 05:59:48;;;;;;;6.20;0.60;;;;;;;14.12;67.90;99488.50;4982728;28;20046;-43
2022/06/26 06:02:14;;;;;;;5.05;0.70;;;;;;;14.21;67.84;99486.56;4979060;28;20130;-42
2022/06/26 06:04:41;;;;;;;8.80;1.02;;;;;;;14.33;66.83;99486.25;4984065;28;20082;-43
2022/06/26 06:07:08;;;;;;;4.20;0.52;;;;;;;14.42;67.06;99494.69;4982892;28;20050;-44
2022/06/26 06:09:35;;;;;;;4.15;0.60;;;;;;;14.53;66.26;99487.44;4980959;28;20093;-43
2022/06/26 06:12:03;;;;;;;5.78;0.70;;;;;;;14.72;66.23;99486.88;4978748;28;20113;-43
2022/06/26 06:14:30;;;;;;;5.68;0.50;;;;;;;14.85;66.55;99488.28;4984432;28;20050;-43
2022/06/26 06:16:56;;;;;;;1.67;0.60;;;;;;;15.02;65.71;99490.41;4981895;28;20100;-43
2022/06/26 06:19:23;;;;;;;6.40;0.98;;;;;;;15.16;65.07;99489.97;4977727;28;20093;-44
2022/06/26 06:21:50;;;;;;;5.07;0.82;;;;;;;15.30;64.72;99491.28;4983945;28;20116;-48
2022/06/26 06:24:17;;;;;;;3.35;0.77;;;;;;;15.38;64.82;99491.91;4985502;28;20058;-44
2022/06/26 06:26:43;;;;;;;3.35;0.38;;;;;;;15.46;64.28;99488.19;4979202;28;20109;-46
2022/06/26 06:29:10;;;;;;;7.07;0.73;;;;;;;15.63;64.20;99491.13;4983727;28;20073;-45
2022/06/26 06:31:36;;;;;;;5.10;0.63;;;;;;;15.81;63.98;99494.88;4985494;28;20049;-43
2022/06/26 06:34:03;;;;;;;3.13;0.63;;;;;;;15.93;63.88;99493.63;4983168;28;20065;-43
2022/06/26 06:36:30;;;;;;;8.15;0.60;;;;;;;16.04;63.11;99495.88;4979211;28;20059;-44
2022/06/26 06:38:56;;;;;;;5.10;0.73;;;;;;;16.18;63.42;99498.00;4977087;28;20055;-44
2022/06/26 06:41:23;;;;;;;4.60;0.60;;;;;;;16.31;62.84;99505.41;4980440;28;20054;-48
2022/06/26 06:43:50;;;;;;;3.95;0.93;;;;;;;16.30;62.19;99495.88;4984587;28;20388;-45
2022/06/26 06:46:16;;;;;;;3.15;0.70;;;;;;;16.44;62.44;99503.22;4976942;28;20074;-46
2022/06/26 06:48:43;;;;;;;5.00;0.95;;;;;;;16.63;62.14;99497.34;4979129;28;20399;-44
2022/06/26 06:51:09;;;;;;;2.55;0.60;;;;;;;16.82;62.02;99508.81;4985754;28;20081;-44
2022/06/26 06:53:36;;;;;;;1.83;0.52;;;;;;;16.94;61.24;99511.88;4981273;28;20750;-46
2022/06/26 06:56:03;;;;;;;4.30;0.70;;;;;;;17.08;60.82;99514.00;4982683;28;20057;-48
2022/06/26 06:58:29;;;;;;;3.65;0.50;;;;;;;17.11;60.40;99511.25;4982624;28;20046;-46
2022/06/26 07:00:56;;;;;;;4.03;0.65;;;;;;;17.28;60.85;99509.75;4981799;28;20501;-45
2022/06/26 07:03:23;;;;;;;4.07;1.73;;;;;;;17.50;60.56;99514.13;4982750;28;20450;-45
2022/06/26 07:05:49;;;;;;;2.63;0.68;;;;;;;17.57;58.54;99524.28;4983662;28;20050;-43
2022/06/26 07:08:16;;;;;;;4.60;0.70;;;;;;;17.75;59.28;99529.72;4991339;28;20050;-46
2022/06/26 07:10:43;;;;;;;3.85;0.75;;;;;;;17.99;59.41;99522.59;4983862;28;20065;-43
2022/06/26 07:13:10;;;;;;;5.30;0.63;;;;;;;18.16;58.14;99526.31;4986654;28;20050;-48
2022/06/26 07:15:38;;;;;;;1.45;0.52;;;;;;;18.24;57.47;99533.84;4980517;28;20046;-45
2022/06/26 07:18:04;;;;;;;4.00;0.50;;;;;;;18.38;57.53;99541.09;4981735;28;20050;-48
2022/06/26 07:20:31;;;;;;;6.40;0.60;;;;;;;18.56;56.62;99530.72;4981462;28;20054;-49
2022/06/26 07:22:58;;;;;;;6.20;0.73;;;;;;;18.32;55.82;99536.13;4983762;28;20054;-47
2022/06/26 07:25:24;;;;;;;3.65;0.65;;;;;;;18.36;56.27;99540.31;4977740;28;20042;-44
2022/06/26 07:27:51;;;;;;;4.25;0.55;;;;;;;18.62;56.36;99546.19;4976521;28;20519;-45
2022/06/26 07:30:19;;;;;;;3.88;0.40;;;;;;;18.92;56.84;99556.22;4984110;28;20074;-46
2022/06/26 07:32:46;;;;;;;6.43;0.80;;;;;;;19.19;55.72;99537.53;4980455;28;20165;-47
2022/06/26 07:35:12;;;;;;;3.50;0.57;;;;;;;19.18;54.40;99546.31;4981639;28;20050;-48
2022/06/26 07:37:40;;;;;;;3.50;0.95;;;;;;;19.11;53.79;99552.78;4979417;28;20054;-44
2022/06/26 07:40:08;;;;;;;4.70;0.82;;;;;;;19.13;53.93;99546.56;4976180;28;20046;-48
2022/06/26 07:42:34;;;;;;;4.75;0.55;;;;;;;19.39;53.99;99541.00;4978437;28;20066;-46
2022/06/26 07:45:01;;;;;;;5.90;0.70;;;;;;;19.52;54.38;99560.47;4981481;28;20050;-48
2022/06/26 07:47:27;;;;;;;3.92;0.93;;;;;;;19.73;53.88;99552.47;4980579;28;20097;-45
2022/06/26 07:49:54;;;;;;;4.13;0.50;;;;;;;19.91;52.81;99552.50;4982789;28;20050;-49
2022/06/26 07:52:21;;;;;;;2.20;0.50;;;;;;;20.11;52.89;99550.69;4982242;28;20105;-46
2022/06/26 07:54:48;;;;;;;4.05;0.40;;;;;;;20.28;52.30;99555.06;4986239;28;20046;-46
2022/06/26 07:57:14;;;;;;;1.98;0.45;;;;;;;20.37;51.64;99559.03;4987167;28;20050;-47
2022/06/26 07:59:41;;;;;;;2.00;0.40;;;;;;;20.42;51.41;99554.38;4984002;28;20096;-50
2022/06/26 08:02:08;;;;;;;4.53;1.05;;;;;;;20.51;51.56;99555.66;4981888;28;20148;-47
2022/06/26 08:04:34;;;;;;;2.85;1.08;;;;;;;20.51;50.96;99550.41;4985011;28;20097;-46
2022/06/26 08:07:01;;;;;;;4.32;0.73;;;;;;;20.52;50.46;99549.47;4983786;28;20078;-45
2022/06/26 08:09:28;;;;;;;6.38;0.70;;;;;;;20.59;50.78;99555.25;4984765;28;20499;-48
2022/06/26 08:11:55;;;;;;;4.25;0.50;;;;;;;20.71;50.53;99552.00;4981991;28;20050;-49
2022/06/26 08:14:22;;;;;;;2.97;0.60;;;;;;;20.85;49.94;99558.28;4985645;28;20054;-44
2022/06/26 08:16:49;;;;;;;4.63;0.40;;;;;;;20.71;49.28;99559.88;4986472;28;20049;-47
2022/06/26 08:19:15;;;;;;;5.63;0.60;;;;;;;20.63;49.60;99564.69;4981581;28;20050;-47
2022/06/26 08:24:31;;;;;;;5.65;0.60;;;;;;;20.87;50.08;99559.06;4981614;28;20058;-46
2022/06/26 08:26:59;;;;;;;4.10;1.00;;;;;;;21.03;49.71;99561.75;4982987;28;20042;-49
2022/06/26 08:29:26;;;;;;;5.05;0.63;;;;;;;21.06;48.96;99562.44;4982306;28;20109;-44
2022/06/26 08:31:53;;;;;;;3.85;0.75;;;;;;;21.08;48.78;99558.88;4982708;28;20101;-45
2022/06/26 08:34:20;;;;;;;4.82;0.90;;;;;;;21.13;48.68;99559.44;4984506;28;20054;-46
2022/06/26 08:36:47;;;;;;;6.32;1.15;;;;;;;21.40;49.04;99553.59;4982800;28;20046;-50
2022/06/26 08:39:14;;;;;;;5.45;0.88;;;;;;;21.55;48.43;99558.00;4982634;28;20061;-51
2022/06/26 08:41:42;;;;;;;4.97;0.60;;;;;;;21.67;47.75;99555.59;4981198;28;20214;-48
2022/06/26 08:44:10;;;;;;;6.38;0.60;;;;;;;21.57;46.30;99547.38;4984195;28;20042;-46
2022/06/26 08:46:40;;;;;;;5.65;1.10;;;;;;;21.53;46.74;99549.34;4977499;28;20412;-46
2022/06/26 08:49:10;;;;;;;5.55;0.43;;;;;;;21.54;46.88;99545.75;4984167;28;20133;-47
2022/06/26 08:51:40;;;;;;;4.57;0.73;;;;;;;21.78;47.26;99555.88;4980726;28;20055;-48
2022/06/26 08:54:09;;;;;;;4.25;1.02;;;;;;;21.99;47.24;99554.72;4986277;28;20081;-48
2022/06/26 08:56:38;;;;;;;4.28;1.38;;;;;;;22.27;46.75;99559.22;4983416;28;20108;-46
2022/06/26 08:59:05;;;;;;;3.95;0.60;;;;;;;22.29;45.20;99567.84;4982668;28;20065;-47
2022/06/26 09:01:32;;;;;;;3.95;0.85;;;;;;;22.42;45.94;99572.41;4981785;28;20077;-45
2022/06/26 09:03:58;;;;;;;4.68;1.25;;;;;;;22.48;45.24;99564.13;4981175;28;20482;-45
2022/06/26 09:06:25;;;;;;;1.85;0.70;;;;;;;22.65;45.29;99580.75;4977524;28;20043;-46
2022/06/26 09:08:52;;;;;;;4.22;0.60;;;;;;;22.87;45.12;99582.06;4982574;28;20364;-46
2022/06/26 09:11:19;;;;;;;3.45;0.45;;;;;;;23.15;45.41;99580.34;4981266;28;20082;-47
2022/06/26 09:13:49;;;;;;;1.52;0.70;;;;;;;23.38;44.57;99572.78;4978908;28;20069;-47
2022/06/26 09:16:16;;;;;;;2.53;0.50;;;;;;;23.67;44.90;99588.56;4979043;28;20043;-46
2022/06/26 09:18:43;;;;;;;4.55;0.82;;;;;;;23.68;43.01;99582.31;4981138;28;20113;-48
2022/06/26 09:21:11;;;;;;;4.45;0.80;;;;;;;23.53;43.29;99586.78;4999957;28;20096;-46
2022/06/26 09:23:39;;;;;;;3.60;0.60;;;;;;;23.33;42.53;99589.75;4981850;28;20528;-46
2022/06/26 09:26:06;;;;;;;4.28;0.50;;;;;;;23.16;42.74;99597.88;4982756;28;20058;-46
2022/06/26 09:28:33;;;;;;;3.40;0.88;;;;;;;23.05;43.34;99595.91;4980838;28;20058;-50
2022/06/26 09:31:03;;;;;;;4.43;0.70;;;;;;;22.85;43.35;99606.78;4982692;28;20152;-45
2022/06/26 09:33:33;;;;;;;3.08;0.90;;;;;;;22.78;44.02;99604.59;4998702;28;20061;-48
2022/06/26 09:36:03;;;;;;;5.65;0.68;;;;;;;22.41;42.74;99597.09;4965445;28;20058;-46
2022/06/26 09:38:32;;;;;;;8.18;2.35;;;;;;;22.28;44.33;99607.50;4991404;28;20443;-46
2022/06/26 09:43:41;;;;;;;2.38;0.63;;;;;;;22.70;45.06;99602.44;5036211;28;20413;-45
2022/06/26 09:46:11;;;;;;;2.35;0.40;;;;;;;22.97;44.45;99599.06;4992275;28;20047;-46
2022/06/26 09:48:38;;;;;;;4.05;1.10;;;;;;;23.29;44.01;99604.09;4998958;28;20146;-44
2022/06/26 09:51:09;;;;;;;3.47;0.70;;;;;;;23.48;43.71;99610.91;5004232;28;20116;-49
2022/06/26 09:53:37;;;;;;;3.50;0.70;;;;;;;23.60;43.35;99606.59;5004782;28;20046;-45
2022/06/26 09:56:06;;;;;;;4.82;0.85;;;;;;;23.66;42.52;99600.06;5005134;28;20105;-50
2022/06/26 09:58:32;;;;;;;3.45;0.75;;;;;;;23.74;42.46;99608.34;5007937;28;20065;-46
2022/06/26 10:06:36;;;;;;;3.40;0.88;;;;;;;24.36;42.37;99593.72;5029584;28;20553;-48
2022/06/26 10:09:06;;;;;;;3.53;0.95;;;;;;;24.54;42.22;99601.34;5035045;28;20054;-48
2022/06/26 10:11:34;;;;;;;4.45;1.15;;;;;;;24.61;41.49;99597.31;5017757;28;20069;-44
2022/06/26 10:16:59;;;;;;;4.78;2.10;;;;;;;24.61;39.95;99596.47;5062887;27;20391;-46
2022/06/26 10:20:06;;;;;;;6.47;2.17;;;;;;;24.62;40.09;99593.72;5019480;28;20054;-46
2022/06/26 10:22:42;;;;;;;3.25;0.75;;;;;;;24.78;40.26;99592.66;5022483;28;20418;-46
2022/06/26 10:25:22;;;;;;;2.90;1.80;;;;;;;24.77;40.34;99585.66;5019107;28;20052;-47
2022/06/26 10:27:49;;;;;;;2.22;2.00;;;;;;;24.90;40.58;99585.69;5023129;28;20046;-45
2022/06/26 10:30:19;;;;;;;1.90;1.52;;;;;;;24.98;39.57;99580.69;5020689;28;20046;-44
2022/06/26 10:33:04;;;;;;;4.13;1.48;;;;;;;25.22;40.69;99595.78;5010652;28;20104;-45
2022/06/26 10:46:39;;;;;;;7.05;0.57;;;;;;;25.33;39.08;99587.06;5081079;27;20392;-47
2022/06/26 10:49:08;;;;;;;4.65;1.05;;;;;;;25.25;37.22;99576.16;5003734;28;20050;-43
2022/06/26 10:51:39;;;;;;;5.38;1.15;;;;;;;25.35;37.98;99589.59;5005849;28;20050;-44
2022/06/26 10:54:18;;;;;;;2.67;0.65;;;;;;;25.41;37.59;99584.72;5001931;28;20046;-49
2022/06/26 10:56:46;;;;;;;6.68;0.88;;;;;;;25.54;37.67;99583.81;5003918;28;20046;-45
2022/06/26 10:59:20;;;;;;;8.75;0.85;;;;;;;25.63;37.81;99582.31;5007487;28;20050;-46
2022/06/26 11:01:47;;;;;;;4.75;0.73;;;;;;;25.80;37.63;99596.97;5004537;28;20046;-46
2022/06/26 11:04:14;;;;;;;3.45;0.70;;;;;;;26.01;37.10;99580.41;5004638;28;20115;-44
2022/06/26 11:06:40;;;;;;;2.47;0.50;;;;;;;26.09;36.41;99577.16;5008075;28;20053;-47
2022/06/26 11:09:08;;;;;;;2.00;0.55;;;;;;;26.12;35.58;99582.25;5004895;28;20046;-45
2022/06/26 11:11:35;;;;;;;4.50;0.73;;;;;;;26.10;36.05;99585.03;5006037;28;20046;-47
2022/06/26 11:14:06;;;;;;;6.47;0.60;;;;;;;26.16;36.26;99589.88;5003419;28;20134;-47
2022/06/26 11:19:30;;;;;;;1.80;0.60;;;;;;;25.97;35.92;99578.97;5063348;28;20867;-49
2022/06/26 11:22:13;;;;;;;5.28;0.82;;;;;;;25.92;36.85;99592.56;5018727;28;20053;-44
2022/06/26 11:24:48;;;;;;;;;;;;;;;25.48;35.53;99589.56;5016273;28;20042;-45
2022/06/26 11:27:25;;;;;;;1.88;0.77;;;;;;;25.59;36.83;99584.34;5012597;28;19930;-51
2022/06/26 11:29:52;;;;;;;3.67;0.95;;;;;;;25.62;37.65;99581.47;5027252;28;20054;-48
2022/06/26 11:32:23;;;;;;;2.67;0.68;;;;;;;25.60;37.06;99593.97;5012902;28;20103;-52
2022/06/26 11:34:52;;;;;;;4.22;0.82;;;;;;;25.38;36.80;99598.19;5013712;28;20197;-48
2022/06/26 11:37:32;;;;;;;3.95;1.02;;;;;;;25.00;36.47;99591.19;5011844;28;20116;-46
2022/06/26 11:39:59;;;;;;;4.40;0.65;;;;;;;25.02;37.10;99591.91;5011958;28;20053;-48
2022/06/26 11:42:25;;;;;;;3.95;0.77;;;;;;;24.89;37.14;99590.13;5020922;28;20058;-50
2022/06/26 11:44:54;;;;;;;4.25;0.65;;;;;;;24.89;37.89;99590.13;5017021;28;20132;-47
2022/06/26 11:47:21;;;;;;;4.47;1.25;;;;;;;24.86;37.98;99585.03;5034535;28;20631;-45
2022/06/26 11:49:49;;;;;;;11.35;1.55;;;;;;;24.92;38.40;99582.94;5016678;28;20141;-50
2022/06/26 11:52:16;;;;;;;3.33;0.60;;;;;;;24.93;38.54;99590.78;5017619;28;20054;-48
2022/06/26 11:54:43;;;;;;;6.95;2.25;;;;;;;25.12;38.86;99585.00;5021230;28;20104;-46
2022/06/26 11:57:11;;;;;;;5.68;1.13;;;;;;;25.30;39.20;99576.69;5018392;28;20446;-45
2022/06/26 11:59:42;;;;;;;4.95;0.75;;;;;;;25.38;36.61;99595.53;5012909;28;20045;-47
2022/06/26 12:02:18;;;;;;;3.17;1.02;;;;;;;25.38;37.12;99599.97;5012714;28;20128;-45
2022/06/26 12:05:02;;;;;;;17.98;3.10;;;;;;;25.21;35.68;99582.66;5014968;28;20045;-46
2022/06/26 12:07:47;;;;;;;6.20;0.82;;;;;;;25.24;37.86;99593.03;5014819;28;20095;-46
2022/06/26 12:13:01;;;;;;;4.30;1.58;;;;;;;25.56;37.95;99592.47;5063336;27;20412;-45